sensor_id;sensor_type;location;lat;lon;timestamp;temperature;humidity
9393;DHT22;4736;52.508;13.422;2023-07-28T00:02:29;16.30;86.30
9393;DHT22;4736;52.508;13.422;2023-07-28T00:05:33;16.40;86.30
9393;DHT22;4736;52.508;13.422;2023-07-28T00:08:37;16.40;86.30
9393;DHT22;4736;52.508;13.422;2023-07-28T00:11:40;16.40;86.10
9393;DHT22;4736;52.508;13.422;2023-07-28T00:14:43;16.40;86.10
9393;DHT22;4736;52.508;13.422;2023-07-28T00:17:47;16.50;86.10
9393;DHT22;4736;52.508;13.422;2023-07-28T00:20:54;16.50;86.00
9393;DHT22;4736;52.508;13.422;2023-07-28T00:23:57;16.50;85.90
9393;DHT22;4736;52.508;13.422;2023-07-28T00:27:01;16.50;85.90
9393;DHT22;4736;52.508;13.422;2023-07-28T00:30:05;16.50;85.90
9393;DHT22;4736;52.508;13.422;2023-07-28T00:33:09;16.50;85.90
9393;DHT22;4736;52.508;13.422;2023-07-28T00:36:14;16.50;86.00
9393;DHT22;4736;52.508;13.422;2023-07-28T00:39:17;16.50;85.90
9393;DHT22;4736;52.508;13.422;2023-07-28T00:42:20;16.50;85.90
9393;DHT22;4736;52.508;13.422;2023-07-28T00:45:23;16.40;86.00
9393;DHT22;4736;52.508;13.422;2023-07-28T00:48:27;16.50;86.20
9393;DHT22;4736;52.508;13.422;2023-07-28T00:51:32;16.50;86.10
9393;DHT22;4736;52.508;13.422;2023-07-28T00:54:36;16.40;86.20
9393;DHT22;4736;52.508;13.422;2023-07-28T00:57:39;16.40;86.30
9393;DHT22;4736;52.508;13.422;2023-07-28T01:00:42;16.50;86.30
9393;DHT22;4736;52.508;13.422;2023-07-28T01:03:47;16.50;86.30
9393;DHT22;4736;52.508;13.422;2023-07-28T01:07:06;16.50;86.40
9393;DHT22;4736;52.508;13.422;2023-07-28T01:10:14;16.50;86.40
9393;DHT22;4736;52.508;13.422;2023-07-28T01:13:20;16.60;86.30
9393;DHT22;4736;52.508;13.422;2023-07-28T01:16:24;16.60;86.20
9393;DHT22;4736;52.508;13.422;2023-07-28T01:19:27;16.60;86.20
9393;DHT22;4736;52.508;13.422;2023-07-28T01:22:46;16.60;86.20
9393;DHT22;4736;52.508;13.422;2023-07-28T01:25:58;16.60;86.20
9393;DHT22;4736;52.508;13.422;2023-07-28T01:29:07;16.60;86.20
9393;DHT22;4736;52.508;13.422;2023-07-28T01:32:11;16.70;86.20
9393;DHT22;4736;52.508;13.422;2023-07-28T01:35:14;16.70;86.20
9393;DHT22;4736;52.508;13.422;2023-07-28T01:38:17;16.70;86.10
9393;DHT22;4736;52.508;13.422;2023-07-28T01:41:21;16.70;86.10
9393;DHT22;4736;52.508;13.422;2023-07-28T01:44:25;16.70;86.20
9393;DHT22;4736;52.508;13.422;2023-07-28T01:47:28;16.70;86.20
9393;DHT22;4736;52.508;13.422;2023-07-28T01:50:34;16.70;86.30
9393;DHT22;4736;52.508;13.422;2023-07-28T01:53:37;16.70;86.40
9393;DHT22;4736;52.508;13.422;2023-07-28T01:56:41;16.70;86.50
9393;DHT22;4736;52.508;13.422;2023-07-28T01:59:56;16.70;86.60
9393;DHT22;4736;52.508;13.422;2023-07-28T02:02:59;16.70;86.60
9393;DHT22;4736;52.508;13.422;2023-07-28T02:06:03;16.70;86.60
9393;DHT22;4736;52.508;13.422;2023-07-28T02:09:07;16.70;86.60
9393;DHT22;4736;52.508;13.422;2023-07-28T02:12:10;16.70;86.70
9393;DHT22;4736;52.508;13.422;2023-07-28T02:15:14;16.80;86.70
9393;DHT22;4736;52.508;13.422;2023-07-28T02:18:18;16.80;86.50
9393;DHT22;4736;52.508;13.422;2023-07-28T02:21:21;16.80;86.40
9393;DHT22;4736;52.508;13.422;2023-07-28T02:24:24;16.80;86.40
9393;DHT22;4736;52.508;13.422;2023-07-28T02:27:27;16.80;86.40
9393;DHT22;4736;52.508;13.422;2023-07-28T02:30:32;16.80;86.50
9393;DHT22;4736;52.508;13.422;2023-07-28T02:33:35;16.80;86.50
9393;DHT22;4736;52.508;13.422;2023-07-28T02:36:38;16.80;86.50
9393;DHT22;4736;52.508;13.422;2023-07-28T02:39:42;16.80;86.50
9393;DHT22;4736;52.508;13.422;2023-07-28T02:42:45;16.90;86.50
9393;DHT22;4736;52.508;13.422;2023-07-28T02:45:53;16.90;86.50
9393;DHT22;4736;52.508;13.422;2023-07-28T02:48:57;16.90;86.40
9393;DHT22;4736;52.508;13.422;2023-07-28T02:52:00;16.90;86.30
9393;DHT22;4736;52.508;13.422;2023-07-28T02:55:05;16.90;86.20
9393;DHT22;4736;52.508;13.422;2023-07-28T02:58:08;17.00;86.20
9393;DHT22;4736;52.508;13.422;2023-07-28T03:01:13;17.00;86.30
9393;DHT22;4736;52.508;13.422;2023-07-28T03:04:16;17.00;86.20
9393;DHT22;4736;52.508;13.422;2023-07-28T03:07:20;17.00;86.10
9393;DHT22;4736;52.508;13.422;2023-07-28T03:10:24;17.00;86.00
9393;DHT22;4736;52.508;13.422;2023-07-28T03:13:27;17.00;86.00
9393;DHT22;4736;52.508;13.422;2023-07-28T03:16:32;17.00;86.00
9393;DHT22;4736;52.508;13.422;2023-07-28T03:19:36;17.00;86.10
9393;DHT22;4736;52.508;13.422;2023-07-28T03:22:39;17.00;86.10
9393;DHT22;4736;52.508;13.422;2023-07-28T03:25:42;17.00;85.90
9393;DHT22;4736;52.508;13.422;2023-07-28T03:28:46;17.00;85.80
9393;DHT22;4736;52.508;13.422;2023-07-28T03:31:50;17.00;85.70
9393;DHT22;4736;52.508;13.422;2023-07-28T03:34:54;17.00;85.80
9393;DHT22;4736;52.508;13.422;2023-07-28T03:37:57;17.00;85.70
9393;DHT22;4736;52.508;13.422;2023-07-28T03:41:00;17.00;85.70
9393;DHT22;4736;52.508;13.422;2023-07-28T03:44:03;17.10;85.70
9393;DHT22;4736;52.508;13.422;2023-07-28T03:47:08;17.10;85.70
9393;DHT22;4736;52.508;13.422;2023-07-28T03:50:11;17.10;85.70
9393;DHT22;4736;52.508;13.422;2023-07-28T03:53:14;17.20;85.50
9393;DHT22;4736;52.508;13.422;2023-07-28T03:56:18;17.20;85.40
9393;DHT22;4736;52.508;13.422;2023-07-28T03:59:21;17.20;85.40
9393;DHT22;4736;52.508;13.422;2023-07-28T04:02:25;17.20;85.40
9393;DHT22;4736;52.508;13.422;2023-07-28T04:05:28;17.20;85.40
9393;DHT22;4736;52.508;13.422;2023-07-28T04:08:32;17.20;85.30
9393;DHT22;4736;52.508;13.422;2023-07-28T04:11:35;17.20;85.40
9393;DHT22;4736;52.508;13.422;2023-07-28T04:14:38;17.10;85.50
9393;DHT22;4736;52.508;13.422;2023-07-28T04:17:44;17.10;85.50
9393;DHT22;4736;52.508;13.422;2023-07-28T04:20:47;17.20;85.60
9393;DHT22;4736;52.508;13.422;2023-07-28T04:23:50;17.20;85.60
9393;DHT22;4736;52.508;13.422;2023-07-28T04:26:53;17.20;85.30
9393;DHT22;4736;52.508;13.422;2023-07-28T04:29:57;17.20;85.20
9393;DHT22;4736;52.508;13.422;2023-07-28T04:33:02;17.30;85.20
9393;DHT22;4736;52.508;13.422;2023-07-28T04:36:05;17.30;85.20
9393;DHT22;4736;52.508;13.422;2023-07-28T04:39:08;17.40;85.10
9393;DHT22;4736;52.508;13.422;2023-07-28T04:42:12;17.40;84.90
9393;DHT22;4736;52.508;13.422;2023-07-28T04:45:15;17.40;85.00
9393;DHT22;4736;52.508;13.422;2023-07-28T04:48:19;17.40;85.00
9393;DHT22;4736;52.508;13.422;2023-07-28T04:51:22;17.40;84.80
9393;DHT22;4736;52.508;13.422;2023-07-28T04:54:26;17.50;84.70
9393;DHT22;4736;52.508;13.422;2023-07-28T04:57:29;17.50;84.60
9393;DHT22;4736;52.508;13.422;2023-07-28T05:00:35;17.50;84.40
9393;DHT22;4736;52.508;13.422;2023-07-28T05:03:39;17.50;84.60
9393;DHT22;4736;52.508;13.422;2023-07-28T05:06:43;17.50;84.60
9393;DHT22;4736;52.508;13.422;2023-07-28T05:09:46;17.50;84.30
9393;DHT22;4736;52.508;13.422;2023-07-28T05:12:49;17.50;84.30
9393;DHT22;4736;52.508;13.422;2023-07-28T05:15:52;17.50;84.40
9393;DHT22;4736;52.508;13.422;2023-07-28T05:18:57;17.50;84.60
9393;DHT22;4736;52.508;13.422;2023-07-28T05:22:00;17.50;84.20
9393;DHT22;4736;52.508;13.422;2023-07-28T05:25:04;17.50;84.10
9393;DHT22;4736;52.508;13.422;2023-07-28T05:28:08;17.60;84.00
9393;DHT22;4736;52.508;13.422;2023-07-28T05:31:11;17.60;84.00
9393;DHT22;4736;52.508;13.422;2023-07-28T05:34:18;17.50;84.10
9393;DHT22;4736;52.508;13.422;2023-07-28T05:37:21;17.60;84.20
9393;DHT22;4736;52.508;13.422;2023-07-28T05:40:25;17.60;84.30
9393;DHT22;4736;52.508;13.422;2023-07-28T05:43:28;17.60;84.00
9393;DHT22;4736;52.508;13.422;2023-07-28T05:46:31;17.60;83.90
9393;DHT22;4736;52.508;13.422;2023-07-28T05:49:36;17.60;84.00
9393;DHT22;4736;52.508;13.422;2023-07-28T05:52:39;17.60;83.80
9393;DHT22;4736;52.508;13.422;2023-07-28T05:55:42;17.80;83.50
9393;DHT22;4736;52.508;13.422;2023-07-28T05:58:46;17.80;83.60
9393;DHT22;4736;52.508;13.422;2023-07-28T06:01:49;17.70;83.80
9393;DHT22;4736;52.508;13.422;2023-07-28T06:04:54;17.70;83.90
9393;DHT22;4736;52.508;13.422;2023-07-28T06:07:57;17.70;83.60
9393;DHT22;4736;52.508;13.422;2023-07-28T06:11:03;17.70;83.80
9393;DHT22;4736;52.508;13.422;2023-07-28T06:14:12;17.70;83.90
9393;DHT22;4736;52.508;13.422;2023-07-28T06:17:15;17.60;84.10
9393;DHT22;4736;52.508;13.422;2023-07-28T06:20:20;17.60;84.20
9393;DHT22;4736;52.508;13.422;2023-07-28T06:23:23;17.60;84.50
9393;DHT22;4736;52.508;13.422;2023-07-28T06:26:26;17.50;84.50
9393;DHT22;4736;52.508;13.422;2023-07-28T06:29:29;17.50;84.60
9393;DHT22;4736;52.508;13.422;2023-07-28T06:32:33;17.60;84.60
9393;DHT22;4736;52.508;13.422;2023-07-28T06:35:37;17.60;84.50
9393;DHT22;4736;52.508;13.422;2023-07-28T06:38:40;17.60;84.60
9393;DHT22;4736;52.508;13.422;2023-07-28T06:41:46;17.60;84.60
9393;DHT22;4736;52.508;13.422;2023-07-28T06:44:49;17.80;84.40
9393;DHT22;4736;52.508;13.422;2023-07-28T06:47:53;17.80;84.20
9393;DHT22;4736;52.508;13.422;2023-07-28T06:50:57;17.80;84.20
9393;DHT22;4736;52.508;13.422;2023-07-28T06:54:00;18.00;83.80
9393;DHT22;4736;52.508;13.422;2023-07-28T06:57:04;17.90;83.90
9393;DHT22;4736;52.508;13.422;2023-07-28T07:00:09;18.00;83.70
9393;DHT22;4736;52.508;13.422;2023-07-28T07:03:12;17.90;83.70
9393;DHT22;4736;52.508;13.422;2023-07-28T07:06:17;18.00;84.00
9393;DHT22;4736;52.508;13.422;2023-07-28T07:09:20;18.10;84.10
9393;DHT22;4736;52.508;13.422;2023-07-28T07:12:24;18.30;83.00
9393;DHT22;4736;52.508;13.422;2023-07-28T07:15:27;18.30;82.80
9393;DHT22;4736;52.508;13.422;2023-07-28T07:18:30;18.50;83.20
9393;DHT22;4736;52.508;13.422;2023-07-28T07:21:35;18.70;81.80
9393;DHT22;4736;52.508;13.422;2023-07-28T07:24:39;18.70;81.50
9393;DHT22;4736;52.508;13.422;2023-07-28T07:27:42;18.70;81.50
9393;DHT22;4736;52.508;13.422;2023-07-28T07:30:46;18.70;81.70
9393;DHT22;4736;52.508;13.422;2023-07-28T07:33:50;18.80;81.50
9393;DHT22;4736;52.508;13.422;2023-07-28T07:36:55;18.90;81.40
9393;DHT22;4736;52.508;13.422;2023-07-28T07:39:58;19.00;80.70
9393;DHT22;4736;52.508;13.422;2023-07-28T07:43:02;19.20;80.50
9393;DHT22;4736;52.508;13.422;2023-07-28T07:46:05;19.20;79.70
9393;DHT22;4736;52.508;13.422;2023-07-28T07:49:08;19.30;80.00
9393;DHT22;4736;52.508;13.422;2023-07-28T07:52:13;19.50;78.90
9393;DHT22;4736;52.508;13.422;2023-07-28T07:55:16;19.50;78.30
9393;DHT22;4736;52.508;13.422;2023-07-28T07:58:19;19.70;78.40
9393;DHT22;4736;52.508;13.422;2023-07-28T08:01:22;19.80;77.50
9393;DHT22;4736;52.508;13.422;2023-07-28T08:04:26;19.80;77.90
9393;DHT22;4736;52.508;13.422;2023-07-28T08:07:31;20.00;78.20
9393;DHT22;4736;52.508;13.422;2023-07-28T08:10:34;20.10;77.40
9393;DHT22;4736;52.508;13.422;2023-07-28T08:13:37;20.40;76.30
9393;DHT22;4736;52.508;13.422;2023-07-28T08:16:40;20.70;75.60
9393;DHT22;4736;52.508;13.422;2023-07-28T08:19:43;20.60;74.50
9393;DHT22;4736;52.508;13.422;2023-07-28T08:22:48;20.70;73.30
9393;DHT22;4736;52.508;13.422;2023-07-28T08:25:51;20.70;73.80
9393;DHT22;4736;52.508;13.422;2023-07-28T08:28:58;20.80;74.10
9393;DHT22;4736;52.508;13.422;2023-07-28T08:32:01;20.60;74.10
9393;DHT22;4736;52.508;13.422;2023-07-28T08:35:05;20.60;74.10
9393;DHT22;4736;52.508;13.422;2023-07-28T08:38:11;20.60;74.40
9393;DHT22;4736;52.508;13.422;2023-07-28T08:41:14;20.50;75.10
9393;DHT22;4736;52.508;13.422;2023-07-28T08:44:17;20.50;75.60
9393;DHT22;4736;52.508;13.422;2023-07-28T08:47:20;20.40;74.90
9393;DHT22;4736;52.508;13.422;2023-07-28T08:50:24;20.50;75.20
9393;DHT22;4736;52.508;13.422;2023-07-28T08:53:28;20.60;74.80
9393;DHT22;4736;52.508;13.422;2023-07-28T08:56:32;20.60;74.20
9393;DHT22;4736;52.508;13.422;2023-07-28T08:59:35;20.70;74.30
9393;DHT22;4736;52.508;13.422;2023-07-28T09:02:43;21.00;73.20
9393;DHT22;4736;52.508;13.422;2023-07-28T09:05:47;21.00;71.80
9393;DHT22;4736;52.508;13.422;2023-07-28T09:08:52;21.00;71.90
9393;DHT22;4736;52.508;13.422;2023-07-28T09:11:55;21.00;72.60
9393;DHT22;4736;52.508;13.422;2023-07-28T09:15:01;20.80;72.70
9393;DHT22;4736;52.508;13.422;2023-07-28T09:18:07;20.80;73.20
9393;DHT22;4736;52.508;13.422;2023-07-28T09:21:17;20.60;73.70
9393;DHT22;4736;52.508;13.422;2023-07-28T09:24:30;20.30;75.40
9393;DHT22;4736;52.508;13.422;2023-07-28T09:27:34;20.10;76.50
9393;DHT22;4736;52.508;13.422;2023-07-28T09:30:45;20.30;76.50
9393;DHT22;4736;52.508;13.422;2023-07-28T09:33:49;20.10;77.10
9393;DHT22;4736;52.508;13.422;2023-07-28T09:36:53;20.30;77.30
9393;DHT22;4736;52.508;13.422;2023-07-28T09:39:57;20.50;75.90
9393;DHT22;4736;52.508;13.422;2023-07-28T09:43:03;20.60;74.80
9393;DHT22;4736;52.508;13.422;2023-07-28T09:46:07;20.50;75.20
9393;DHT22;4736;52.508;13.422;2023-07-28T09:49:12;20.60;75.30
9393;DHT22;4736;52.508;13.422;2023-07-28T09:52:19;20.90;74.40
9393;DHT22;4736;52.508;13.422;2023-07-28T09:55:27;20.80;73.70
9393;DHT22;4736;52.508;13.422;2023-07-28T09:58:34;20.90;73.60
9393;DHT22;4736;52.508;13.422;2023-07-28T10:01:40;21.00;73.70
9393;DHT22;4736;52.508;13.422;2023-07-28T10:04:47;21.10;73.90
9393;DHT22;4736;52.508;13.422;2023-07-28T10:07:50;21.00;73.30
9393;DHT22;4736;52.508;13.422;2023-07-28T10:10:55;20.80;74.00
9393;DHT22;4736;52.508;13.422;2023-07-28T10:13:58;20.60;74.80
9393;DHT22;4736;52.508;13.422;2023-07-28T10:17:02;20.40;75.40
9393;DHT22;4736;52.508;13.422;2023-07-28T10:20:27;20.50;75.50
9393;DHT22;4736;52.508;13.422;2023-07-28T10:23:30;20.40;76.20
9393;DHT22;4736;52.508;13.422;2023-07-28T10:26:39;20.50;76.30
9393;DHT22;4736;52.508;13.422;2023-07-28T10:29:56;20.70;75.50
9393;DHT22;4736;52.508;13.422;2023-07-28T10:33:00;20.90;74.70
9393;DHT22;4736;52.508;13.422;2023-07-28T10:36:15;20.90;74.20
9393;DHT22;4736;52.508;13.422;2023-07-28T10:39:19;20.60;74.30
9393;DHT22;4736;52.508;13.422;2023-07-28T10:42:23;20.30;75.50
9393;DHT22;4736;52.508;13.422;2023-07-28T10:45:29;20.00;77.70
9393;DHT22;4736;52.508;13.422;2023-07-28T10:48:34;19.90;78.30
9393;DHT22;4736;52.508;13.422;2023-07-28T10:51:39;20.20;78.90
9393;DHT22;4736;52.508;13.422;2023-07-28T10:54:45;20.80;78.50
9393;DHT22;4736;52.508;13.422;2023-07-28T10:57:51;21.10;76.00
9393;DHT22;4736;52.508;13.422;2023-07-28T11:00:55;21.10;75.90
9393;DHT22;4736;52.508;13.422;2023-07-28T11:04:06;20.80;77.00
9393;DHT22;4736;52.508;13.422;2023-07-28T11:07:10;20.30;77.20
9393;DHT22;4736;52.508;13.422;2023-07-28T11:10:15;20.00;77.80
9393;DHT22;4736;52.508;13.422;2023-07-28T11:13:20;19.60;79.30
9393;DHT22;4736;52.508;13.422;2023-07-28T11:16:41;19.50;79.50
9393;DHT22;4736;52.508;13.422;2023-07-28T11:19:46;19.40;79.70
9393;DHT22;4736;52.508;13.422;2023-07-28T11:22:54;19.20;80.40
9393;DHT22;4736;52.508;13.422;2023-07-28T11:25:58;19.20;81.00
9393;DHT22;4736;52.508;13.422;2023-07-28T11:29:04;19.10;81.70
9393;DHT22;4736;52.508;13.422;2023-07-28T11:32:08;19.10;81.90
9393;DHT22;4736;52.508;13.422;2023-07-28T11:35:14;19.10;82.00
9393;DHT22;4736;52.508;13.422;2023-07-28T11:38:18;19.10;81.90
9393;DHT22;4736;52.508;13.422;2023-07-28T11:41:22;19.10;82.10
9393;DHT22;4736;52.508;13.422;2023-07-28T11:44:27;19.10;82.40
9393;DHT22;4736;52.508;13.422;2023-07-28T11:47:30;19.20;82.30
9393;DHT22;4736;52.508;13.422;2023-07-28T11:50:37;19.40;81.60
9393;DHT22;4736;52.508;13.422;2023-07-28T11:53:41;19.50;81.60
9393;DHT22;4736;52.508;13.422;2023-07-28T11:56:46;19.50;80.80
9393;DHT22;4736;52.508;13.422;2023-07-28T11:59:50;19.80;81.20
9393;DHT22;4736;52.508;13.422;2023-07-28T12:03:04;20.10;80.40
9393;DHT22;4736;52.508;13.422;2023-07-28T12:06:07;20.40;79.60
9393;DHT22;4736;52.508;13.422;2023-07-28T12:09:14;20.50;78.80
9393;DHT22;4736;52.508;13.422;2023-07-28T12:12:19;20.60;77.50
9393;DHT22;4736;52.508;13.422;2023-07-28T12:15:29;20.70;78.00
9393;DHT22;4736;52.508;13.422;2023-07-28T12:18:36;20.90;77.60
9393;DHT22;4736;52.508;13.422;2023-07-28T12:21:42;21.10;77.30
9393;DHT22;4736;52.508;13.422;2023-07-28T12:24:45;21.10;76.40
9393;DHT22;4736;52.508;13.422;2023-07-28T12:27:48;21.10;75.90
9393;DHT22;4736;52.508;13.422;2023-07-28T12:30:53;21.00;75.30
9393;DHT22;4736;52.508;13.422;2023-07-28T12:33:58;20.90;75.70
9393;DHT22;4736;52.508;13.422;2023-07-28T12:37:04;20.70;76.10
9393;DHT22;4736;52.508;13.422;2023-07-28T12:40:12;20.60;75.40
9393;DHT22;4736;52.508;13.422;2023-07-28T12:43:18;20.60;75.50
9393;DHT22;4736;52.508;13.422;2023-07-28T12:46:28;20.60;76.20
9393;DHT22;4736;52.508;13.422;2023-07-28T12:49:32;20.70;76.90
9393;DHT22;4736;52.508;13.422;2023-07-28T12:52:36;20.80;76.60
9393;DHT22;4736;52.508;13.422;2023-07-28T12:55:42;21.10;76.30
9393;DHT22;4736;52.508;13.422;2023-07-28T12:58:48;21.40;75.30
9393;DHT22;4736;52.508;13.422;2023-07-28T13:01:56;21.40;75.50
9393;DHT22;4736;52.508;13.422;2023-07-28T13:04:59;21.30;74.80
9393;DHT22;4736;52.508;13.422;2023-07-28T13:08:02;21.40;76.20
9393;DHT22;4736;52.508;13.422;2023-07-28T13:11:08;21.70;75.10
9393;DHT22;4736;52.508;13.422;2023-07-28T13:14:15;21.90;74.30
9393;DHT22;4736;52.508;13.422;2023-07-28T13:17:19;22.10;73.80
9393;DHT22;4736;52.508;13.422;2023-07-28T13:20:23;22.30;73.40
9393;DHT22;4736;52.508;13.422;2023-07-28T13:23:26;22.50;72.80
9393;DHT22;4736;52.508;13.422;2023-07-28T13:26:29;22.40;72.10
9393;DHT22;4736;52.508;13.422;2023-07-28T13:29:32;22.20;71.60
9393;DHT22;4736;52.508;13.422;2023-07-28T13:32:37;22.10;72.50
9393;DHT22;4736;52.508;13.422;2023-07-28T13:35:40;22.00;71.50
9393;DHT22;4736;52.508;13.422;2023-07-28T13:38:43;21.90;73.70
9393;DHT22;4736;52.508;13.422;2023-07-28T13:41:51;22.00;74.30
9393;DHT22;4736;52.508;13.422;2023-07-28T13:44:54;22.00;73.40
9393;DHT22;4736;52.508;13.422;2023-07-28T13:48:01;22.20;73.20
9393;DHT22;4736;52.508;13.422;2023-07-28T13:51:04;22.20;73.40
9393;DHT22;4736;52.508;13.422;2023-07-28T13:54:07;22.30;73.30
9393;DHT22;4736;52.508;13.422;2023-07-28T13:57:13;22.10;72.80
9393;DHT22;4736;52.508;13.422;2023-07-28T14:00:17;21.90;73.90
9393;DHT22;4736;52.508;13.422;2023-07-28T14:03:21;21.70;73.70
9393;DHT22;4736;52.508;13.422;2023-07-28T14:06:25;21.90;72.80
9393;DHT22;4736;52.508;13.422;2023-07-28T14:09:29;21.90;73.40
9393;DHT22;4736;52.508;13.422;2023-07-28T14:12:32;22.00;72.70
9393;DHT22;4736;52.508;13.422;2023-07-28T14:15:36;22.00;72.80
9393;DHT22;4736;52.508;13.422;2023-07-28T14:18:43;22.00;72.70
9393;DHT22;4736;52.508;13.422;2023-07-28T14:21:49;21.90;73.10
9393;DHT22;4736;52.508;13.422;2023-07-28T14:24:52;22.10;72.40
9393;DHT22;4736;52.508;13.422;2023-07-28T14:27:56;22.00;72.90
9393;DHT22;4736;52.508;13.422;2023-07-28T14:31:02;22.20;72.20
9393;DHT22;4736;52.508;13.422;2023-07-28T14:34:06;22.30;71.60
9393;DHT22;4736;52.508;13.422;2023-07-28T14:37:10;22.50;71.00
9393;DHT22;4736;52.508;13.422;2023-07-28T14:40:13;22.50;69.80
9393;DHT22;4736;52.508;13.422;2023-07-28T14:43:16;22.50;69.90
9393;DHT22;4736;52.508;13.422;2023-07-28T14:46:19;22.50;69.30
9393;DHT22;4736;52.508;13.422;2023-07-28T14:49:29;22.50;69.90
9393;DHT22;4736;52.508;13.422;2023-07-28T14:52:32;22.60;69.90
9393;DHT22;4736;52.508;13.422;2023-07-28T14:55:36;22.80;69.20
9393;DHT22;4736;52.508;13.422;2023-07-28T14:58:40;23.00;68.90
9393;DHT22;4736;52.508;13.422;2023-07-28T15:01:43;22.90;68.00
9393;DHT22;4736;52.508;13.422;2023-07-28T15:04:49;23.10;67.40
9393;DHT22;4736;52.508;13.422;2023-07-28T15:07:54;23.10;67.40
9393;DHT22;4736;52.508;13.422;2023-07-28T15:10:59;23.10;67.40
9393;DHT22;4736;52.508;13.422;2023-07-28T15:14:02;23.00;67.60
9393;DHT22;4736;52.508;13.422;2023-07-28T15:17:06;22.90;67.80
9393;DHT22;4736;52.508;13.422;2023-07-28T15:20:11;23.10;68.00
9393;DHT22;4736;52.508;13.422;2023-07-28T15:23:14;23.00;67.50
9393;DHT22;4736;52.508;13.422;2023-07-28T15:26:17;23.00;67.60
9393;DHT22;4736;52.508;13.422;2023-07-28T15:29:21;23.00;67.30
9393;DHT22;4736;52.508;13.422;2023-07-28T15:32:24;22.90;68.20
9393;DHT22;4736;52.508;13.422;2023-07-28T15:35:28;22.80;68.00
9393;DHT22;4736;52.508;13.422;2023-07-28T15:38:32;22.70;68.00
9393;DHT22;4736;52.508;13.422;2023-07-28T15:41:35;22.50;68.20
9393;DHT22;4736;52.508;13.422;2023-07-28T15:44:38;22.50;68.20
9393;DHT22;4736;52.508;13.422;2023-07-28T15:47:42;22.30;68.90
9393;DHT22;4736;52.508;13.422;2023-07-28T15:50:46;22.30;69.10
9393;DHT22;4736;52.508;13.422;2023-07-28T15:53:49;22.20;69.30
9393;DHT22;4736;52.508;13.422;2023-07-28T15:56:54;22.10;69.60
9393;DHT22;4736;52.508;13.422;2023-07-28T15:59:57;22.00;69.60
9393;DHT22;4736;52.508;13.422;2023-07-28T16:03:00;21.90;70.00
9393;DHT22;4736;52.508;13.422;2023-07-28T16:06:05;21.90;69.70
9393;DHT22;4736;52.508;13.422;2023-07-28T16:09:08;21.90;70.10
9393;DHT22;4736;52.508;13.422;2023-07-28T16:12:17;22.00;69.70
9393;DHT22;4736;52.508;13.422;2023-07-28T16:15:21;22.00;69.50
9393;DHT22;4736;52.508;13.422;2023-07-28T16:18:24;22.10;69.70
9393;DHT22;4736;52.508;13.422;2023-07-28T16:21:30;22.10;70.10
9393;DHT22;4736;52.508;13.422;2023-07-28T16:24:35;22.20;69.50
9393;DHT22;4736;52.508;13.422;2023-07-28T16:27:40;22.10;69.60
9393;DHT22;4736;52.508;13.422;2023-07-28T16:30:43;22.00;70.10
9393;DHT22;4736;52.508;13.422;2023-07-28T16:33:48;21.90;70.60
9393;DHT22;4736;52.508;13.422;2023-07-28T16:36:52;21.80;71.50
9393;DHT22;4736;52.508;13.422;2023-07-28T16:39:55;21.70;71.70
9393;DHT22;4736;52.508;13.422;2023-07-28T16:43:00;21.70;72.00
9393;DHT22;4736;52.508;13.422;2023-07-28T16:46:03;21.70;72.20
9393;DHT22;4736;52.508;13.422;2023-07-28T16:49:07;21.70;72.50
9393;DHT22;4736;52.508;13.422;2023-07-28T16:52:11;21.70;72.90
9393;DHT22;4736;52.508;13.422;2023-07-28T16:55:14;21.70;72.70
9393;DHT22;4736;52.508;13.422;2023-07-28T16:58:17;21.90;72.80
9393;DHT22;4736;52.508;13.422;2023-07-28T17:01:21;21.70;72.90
9393;DHT22;4736;52.508;13.422;2023-07-28T17:04:24;21.60;73.10
9393;DHT22;4736;52.508;13.422;2023-07-28T17:07:28;21.60;73.30
9393;DHT22;4736;52.508;13.422;2023-07-28T17:10:32;21.50;73.70
9393;DHT22;4736;52.508;13.422;2023-07-28T17:13:35;21.50;74.30
9393;DHT22;4736;52.508;13.422;2023-07-28T17:16:39;21.50;74.40
9393;DHT22;4736;52.508;13.422;2023-07-28T17:19:42;21.50;74.60
9393;DHT22;4736;52.508;13.422;2023-07-28T17:22:46;21.50;74.60
9393;DHT22;4736;52.508;13.422;2023-07-28T17:25:49;21.50;74.70
9393;DHT22;4736;52.508;13.422;2023-07-28T17:28:53;21.40;74.40
9393;DHT22;4736;52.508;13.422;2023-07-28T17:31:57;21.40;74.60
9393;DHT22;4736;52.508;13.422;2023-07-28T17:35:00;21.30;74.80
9393;DHT22;4736;52.508;13.422;2023-07-28T17:38:04;21.30;75.00
9393;DHT22;4736;52.508;13.422;2023-07-28T17:41:08;21.30;75.20
9393;DHT22;4736;52.508;13.422;2023-07-28T17:44:12;21.30;75.40
9393;DHT22;4736;52.508;13.422;2023-07-28T17:47:15;21.40;75.30
9393;DHT22;4736;52.508;13.422;2023-07-28T17:50:19;21.40;74.40
9393;DHT22;4736;52.508;13.422;2023-07-28T17:53:23;21.40;74.40
9393;DHT22;4736;52.508;13.422;2023-07-28T17:56:26;21.20;74.30
9393;DHT22;4736;52.508;13.422;2023-07-28T17:59:30;21.10;74.70
9393;DHT22;4736;52.508;13.422;2023-07-28T18:02:33;21.10;74.80
9393;DHT22;4736;52.508;13.422;2023-07-28T18:05:37;21.00;74.70
9393;DHT22;4736;52.508;13.422;2023-07-28T18:08:41;20.80;75.30
9393;DHT22;4736;52.508;13.422;2023-07-28T18:11:44;20.80;75.50
9393;DHT22;4736;52.508;13.422;2023-07-28T18:14:48;20.80;75.50
9393;DHT22;4736;52.508;13.422;2023-07-28T18:17:51;20.80;75.60
9393;DHT22;4736;52.508;13.422;2023-07-28T18:20:54;20.80;75.60
9393;DHT22;4736;52.508;13.422;2023-07-28T18:23:59;20.70;75.70
9393;DHT22;4736;52.508;13.422;2023-07-28T18:27:02;20.70;75.70
9393;DHT22;4736;52.508;13.422;2023-07-28T18:30:07;20.60;75.80
9393;DHT22;4736;52.508;13.422;2023-07-28T18:33:10;20.60;75.90
9393;DHT22;4736;52.508;13.422;2023-07-28T18:36:13;20.50;76.10
9393;DHT22;4736;52.508;13.422;2023-07-28T18:39:18;20.50;76.10
9393;DHT22;4736;52.508;13.422;2023-07-28T18:42:21;20.40;76.30
9393;DHT22;4736;52.508;13.422;2023-07-28T18:45:24;20.30;76.60
9393;DHT22;4736;52.508;13.422;2023-07-28T18:48:27;20.30;76.90
9393;DHT22;4736;52.508;13.422;2023-07-28T18:51:30;20.10;77.10
9393;DHT22;4736;52.508;13.422;2023-07-28T18:54:35;20.10;77.50
9393;DHT22;4736;52.508;13.422;2023-07-28T18:57:38;20.00;77.70
9393;DHT22;4736;52.508;13.422;2023-07-28T19:00:41;20.00;77.70
9393;DHT22;4736;52.508;13.422;2023-07-28T19:03:45;19.90;78.10
9393;DHT22;4736;52.508;13.422;2023-07-28T19:06:48;19.90;78.20
9393;DHT22;4736;52.508;13.422;2023-07-28T19:09:54;19.70;78.60
9393;DHT22;4736;52.508;13.422;2023-07-28T19:12:57;19.70;78.60
9393;DHT22;4736;52.508;13.422;2023-07-28T19:16:00;19.70;78.60
9393;DHT22;4736;52.508;13.422;2023-07-28T19:19:03;19.60;78.70
9393;DHT22;4736;52.508;13.422;2023-07-28T19:22:06;19.50;79.00
9393;DHT22;4736;52.508;13.422;2023-07-28T19:25:12;19.50;79.00
9393;DHT22;4736;52.508;13.422;2023-07-28T19:28:16;19.50;79.20
9393;DHT22;4736;52.508;13.422;2023-07-28T19:31:20;19.40;79.20
9393;DHT22;4736;52.508;13.422;2023-07-28T19:34:23;19.40;79.30
9393;DHT22;4736;52.508;13.422;2023-07-28T19:37:26;19.30;79.40
9393;DHT22;4736;52.508;13.422;2023-07-28T19:40:37;19.20;79.60
9393;DHT22;4736;52.508;13.422;2023-07-28T19:43:40;19.20;79.70